Pasadena, CA

5:38 AM PDT on November 01, 2014 (GMT -0700)
Park California Condo | Change Station
CLOSE
Current Station
Personal Weather Station
Location: Pasadena, CA
Elevation: 797 ft
Nearby Weather Stations
Active Advisory: Special Statement

Elev 797 ft 34.14 °N, 118.14 °W | Updated 7 minutes ago

Overcast
Overcast
54.9 °F
Feels Like 54.9 °F
N
1.7
Wind Variable Wind from West

Today
High -- | Low -- °F
--% Chance of Precip.
Yesterday
High -- | Low -- °F
Precip. -- in
7:12 AM 5:59 PM
Waxing Gibbous, 66% visible
Pressure 29.88 in
Visibility 10.0 miles
Clouds Few 1900 ft
Mostly Cloudy 2900 ft
Overcast 4200 ft
Dew Point 54 °F
Humidity 96%
Rainfall 0.51 in
Snow Depth Not available.
UV 0 out of 12
Pollen .60 out of 12
Air Quality Not available.
Flu Activity Not available.
SPECI KBUR 011209Z 00000KT 10SM -RA FEW019 BKN029 OVC042 14/12 A2988 RMK AO2 RAB1155 P0000

More Conditions Fewer Conditions

Pressure 29.88 in
Visibility 10.0 miles
Clouds Few 1900 ft
Mostly Cloudy 2900 ft
Overcast 4200 ft
Dew Point 54 °F
Humidity 96%
Rainfall 0.51 in
Snow Depth Not available.
UV 0 out of 12
Pollen .60 out of 12
Air Quality Not available.
Flu Activity Not available.
SPECI KBUR 011209Z 00000KT 10SM -RA FEW019 BKN029 OVC042 14/12 A2988 RMK AO2 RAB1155 P0000

More Conditions Fewer Conditions

10-Day Weather Forecast

Almanac

Astronomy

Nov. 01, 2014 Rise Set
Actual Time
Civil Twilight
Nautical Twilight
Astronomical Twilight
Moon
Length of Visible Light
Length of Day
Tomorrow will be .
, % of the Moon is Illuminated

Today's Extremes

State Highs State Lows

Community

WunderPhotos

Upload Photos

1,766,912 photos uploaded!

WunderBlogs® & News

Nearby

Air Quality

  Air Quality AQ Index Pollutant
Not available.

Snow Depth

Station Depth Elevation

Earthquake Activity

City Distance Mag. Time & Date
Minimum magnitude displayed is 2.5.

Coastal Water Temperatures

Place Temperature

Nearby Weather Stations